Alboraya, Spain
Current Conditions -  °F | °C
As of 10:30 PM on Thursday 23 Oct 2014 (Local Time) from LEVC Reporting Station
Clear Clear  
Wind Chill: 19°   Ceiling: Unl
Heat Index: 19°   Visibility: 6mi
Dew Point: 11°   Wind: 1mph
Humidity: 60%   Direction: NA
Pressure: 30.03"   Gusts: NA
Location:  39.5°N, 0.35°W
Report Text: LEVC 232030Z VRB01KT CAVOK 19/11 Q1017 NOSIG
Loading
Personal Weather Stations






























Interactive Weather Map
Tropical Storm Tracking
New forecast layout! Learn more

10-Day Weather Forecast

Advertisements
Track Severe Weather on mobile